sensor_id;sensor_type;location;lat;lon;timestamp;P1;durP1;ratioP1;P2;durP2;ratioP2
74267;SDS011;62638;51.362;12.472;2022-10-22T00:01:33;6.65;;;2.53;;
74267;SDS011;62638;51.362;12.472;2022-10-22T00:03:59;6.53;;;2.63;;
74267;SDS011;62638;51.362;12.472;2022-10-22T00:06:25;3.00;;;2.13;;
74267;SDS011;62638;51.362;12.472;2022-10-22T00:08:50;4.72;;;2.70;;
74267;SDS011;62638;51.362;12.472;2022-10-22T00:11:16;5.85;;;2.45;;
74267;SDS011;62638;51.362;12.472;2022-10-22T00:13:43;5.90;;;2.50;;
74267;SDS011;62638;51.362;12.472;2022-10-22T00:16:09;5.20;;;2.35;;
74267;SDS011;62638;51.362;12.472;2022-10-22T00:18:35;5.10;;;2.60;;
74267;SDS011;62638;51.362;12.472;2022-10-22T00:21:00;7.57;;;3.35;;
74267;SDS011;62638;51.362;12.472;2022-10-22T00:23:26;7.38;;;2.95;;
74267;SDS011;62638;51.362;12.472;2022-10-22T00:25:52;6.32;;;2.78;;
74267;SDS011;62638;51.362;12.472;2022-10-22T00:28:18;5.90;;;2.83;;
74267;SDS011;62638;51.362;12.472;2022-10-22T00:30:43;5.80;;;2.50;;
74267;SDS011;62638;51.362;12.472;2022-10-22T00:33:08;5.45;;;2.63;;
74267;SDS011;62638;51.362;12.472;2022-10-22T00:35:34;4.87;;;2.53;;
74267;SDS011;62638;51.362;12.472;2022-10-22T00:37:59;6.47;;;3.28;;
74267;SDS011;62638;51.362;12.472;2022-10-22T00:40:25;7.90;;;2.65;;
74267;SDS011;62638;51.362;12.472;2022-10-22T00:42:50;5.60;;;2.70;;
74267;SDS011;62638;51.362;12.472;2022-10-22T00:45:17;7.20;;;3.23;;
74267;SDS011;62638;51.362;12.472;2022-10-22T00:50:25;5.13;;;2.03;;
74267;SDS011;62638;51.362;12.472;2022-10-22T00:52:55;5.88;;;2.85;;
74267;SDS011;62638;51.362;12.472;2022-10-22T00:55:22;5.53;;;2.80;;
74267;SDS011;62638;51.362;12.472;2022-10-22T00:57:50;4.57;;;2.63;;
74267;SDS011;62638;51.362;12.472;2022-10-22T01:00:18;5.55;;;2.78;;
74267;SDS011;62638;51.362;12.472;2022-10-22T01:02:44;5.05;;;2.85;;
74267;SDS011;62638;51.362;12.472;2022-10-22T01:05:09;3.83;;;2.10;;
74267;SDS011;62638;51.362;12.472;2022-10-22T01:07:40;6.90;;;3.00;;
74267;SDS011;62638;51.362;12.472;2022-10-22T01:16:10;7.88;;;2.28;;
74267;SDS011;62638;51.362;12.472;2022-10-22T01:18:47;5.03;;;2.38;;
74267;SDS011;62638;51.362;12.472;2022-10-22T01:21:25;6.32;;;2.75;;
74267;SDS011;62638;51.362;12.472;2022-10-22T01:29:39;4.47;;;2.55;;
74267;SDS011;62638;51.362;12.472;2022-10-22T01:32:15;8.40;;;2.40;;
74267;SDS011;62638;51.362;12.472;2022-10-22T01:34:45;6.38;;;3.03;;
74267;SDS011;62638;51.362;12.472;2022-10-22T01:37:14;6.38;;;2.42;;
74267;SDS011;62638;51.362;12.472;2022-10-22T01:39:42;4.53;;;2.50;;
74267;SDS011;62638;51.362;12.472;2022-10-22T01:42:11;3.97;;;2.35;;
74267;SDS011;62638;51.362;12.472;2022-10-22T01:44:37;4.90;;;2.50;;
74267;SDS011;62638;51.362;12.472;2022-10-22T01:49:55;5.55;;;2.30;;
74267;SDS011;62638;51.362;12.472;2022-10-22T01:52:48;5.32;;;2.38;;
74267;SDS011;62638;51.362;12.472;2022-10-22T01:58:32;3.90;;;2.50;;
74267;SDS011;62638;51.362;12.472;2022-10-22T02:01:06;7.07;;;2.97;;
74267;SDS011;62638;51.362;12.472;2022-10-22T02:03:40;3.97;;;2.50;;
74267;SDS011;62638;51.362;12.472;2022-10-22T02:06:13;4.88;;;2.33;;
74267;SDS011;62638;51.362;12.472;2022-10-22T02:08:45;4.55;;;2.65;;
74267;SDS011;62638;51.362;12.472;2022-10-22T02:11:12;4.88;;;2.20;;
74267;SDS011;62638;51.362;12.472;2022-10-22T02:13:40;3.75;;;2.17;;
74267;SDS011;62638;51.362;12.472;2022-10-22T02:16:12;6.63;;;2.97;;
74267;SDS011;62638;51.362;12.472;2022-10-22T02:18:41;4.60;;;2.03;;
74267;SDS011;62638;51.362;12.472;2022-10-22T02:21:08;4.57;;;2.72;;
74267;SDS011;62638;51.362;12.472;2022-10-22T02:23:34;6.40;;;2.45;;
74267;SDS011;62638;51.362;12.472;2022-10-22T02:26:08;4.30;;;2.55;;
74267;SDS011;62638;51.362;12.472;2022-10-22T02:28:45;7.47;;;2.63;;
74267;SDS011;62638;51.362;12.472;2022-10-22T02:31:23;5.43;;;2.58;;
74267;SDS011;62638;51.362;12.472;2022-10-22T02:33:53;5.65;;;2.75;;
74267;SDS011;62638;51.362;12.472;2022-10-22T02:36:22;6.10;;;2.42;;
74267;SDS011;62638;51.362;12.472;2022-10-22T02:38:48;5.53;;;2.45;;
74267;SDS011;62638;51.362;12.472;2022-10-22T02:41:16;5.07;;;2.72;;
74267;SDS011;62638;51.362;12.472;2022-10-22T02:43:42;5.88;;;2.38;;
74267;SDS011;62638;51.362;12.472;2022-10-22T02:46:13;5.40;;;2.38;;
74267;SDS011;62638;51.362;12.472;2022-10-22T02:48:38;6.38;;;3.35;;
74267;SDS011;62638;51.362;12.472;2022-10-22T02:51:03;5.57;;;2.83;;
74267;SDS011;62638;51.362;12.472;2022-10-22T02:53:29;7.65;;;3.05;;
74267;SDS011;62638;51.362;12.472;2022-10-22T02:55:54;4.63;;;2.20;;
74267;SDS011;62638;51.362;12.472;2022-10-22T02:58:19;5.43;;;2.10;;
74267;SDS011;62638;51.362;12.472;2022-10-22T03:00:45;5.55;;;2.85;;
74267;SDS011;62638;51.362;12.472;2022-10-22T03:03:10;7.40;;;2.57;;
74267;SDS011;62638;51.362;12.472;2022-10-22T03:05:35;4.40;;;2.10;;
74267;SDS011;62638;51.362;12.472;2022-10-22T03:08:01;8.67;;;3.10;;
74267;SDS011;62638;51.362;12.472;2022-10-22T03:10:26;5.33;;;2.37;;
74267;SDS011;62638;51.362;12.472;2022-10-22T03:12:51;5.80;;;2.93;;
74267;SDS011;62638;51.362;12.472;2022-10-22T03:15:16;4.90;;;3.00;;
74267;SDS011;62638;51.362;12.472;2022-10-22T03:17:42;9.20;;;3.30;;
74267;SDS011;62638;51.362;12.472;2022-10-22T03:20:07;5.93;;;3.13;;
74267;SDS011;62638;51.362;12.472;2022-10-22T03:22:33;5.95;;;2.90;;
74267;SDS011;62638;51.362;12.472;2022-10-22T03:25:02;6.45;;;3.00;;
74267;SDS011;62638;51.362;12.472;2022-10-22T03:27:31;7.90;;;3.17;;
74267;SDS011;62638;51.362;12.472;2022-10-22T03:29:59;6.20;;;3.25;;
74267;SDS011;62638;51.362;12.472;2022-10-22T03:32:25;6.13;;;3.05;;
74267;SDS011;62638;51.362;12.472;2022-10-22T03:34:51;6.65;;;2.97;;
74267;SDS011;62638;51.362;12.472;2022-10-22T03:37:16;7.93;;;3.20;;
74267;SDS011;62638;51.362;12.472;2022-10-22T03:39:42;5.20;;;2.78;;
74267;SDS011;62638;51.362;12.472;2022-10-22T03:42:08;6.30;;;2.92;;
74267;SDS011;62638;51.362;12.472;2022-10-22T03:44:34;7.07;;;3.03;;
74267;SDS011;62638;51.362;12.472;2022-10-22T03:47:02;5.38;;;2.70;;
74267;SDS011;62638;51.362;12.472;2022-10-22T03:49:27;5.65;;;3.30;;
74267;SDS011;62638;51.362;12.472;2022-10-22T03:51:53;6.32;;;3.33;;
74267;SDS011;62638;51.362;12.472;2022-10-22T03:54:18;8.73;;;3.40;;
74267;SDS011;62638;51.362;12.472;2022-10-22T03:56:43;8.83;;;2.90;;
74267;SDS011;62638;51.362;12.472;2022-10-22T03:59:09;5.25;;;3.13;;
74267;SDS011;62638;51.362;12.472;2022-10-22T04:01:34;5.38;;;2.30;;
74267;SDS011;62638;51.362;12.472;2022-10-22T04:03:59;8.48;;;3.35;;
74267;SDS011;62638;51.362;12.472;2022-10-22T04:06:25;6.22;;;2.97;;
74267;SDS011;62638;51.362;12.472;2022-10-22T04:08:50;5.45;;;3.03;;
74267;SDS011;62638;51.362;12.472;2022-10-22T04:11:15;6.53;;;3.38;;
74267;SDS011;62638;51.362;12.472;2022-10-22T04:13:41;6.45;;;3.13;;
74267;SDS011;62638;51.362;12.472;2022-10-22T04:16:08;9.23;;;3.60;;
74267;SDS011;62638;51.362;12.472;2022-10-22T04:18:38;5.78;;;2.88;;
74267;SDS011;62638;51.362;12.472;2022-10-22T04:21:06;5.60;;;2.80;;
74267;SDS011;62638;51.362;12.472;2022-10-22T04:23:32;5.95;;;2.90;;
74267;SDS011;62638;51.362;12.472;2022-10-22T04:25:57;6.10;;;3.30;;
74267;SDS011;62638;51.362;12.472;2022-10-22T04:28:24;6.50;;;3.28;;
74267;SDS011;62638;51.362;12.472;2022-10-22T04:30:49;5.78;;;2.90;;
74267;SDS011;62638;51.362;12.472;2022-10-22T04:33:14;5.85;;;2.67;;
74267;SDS011;62638;51.362;12.472;2022-10-22T04:35:40;8.50;;;3.27;;
74267;SDS011;62638;51.362;12.472;2022-10-22T04:38:05;6.93;;;3.20;;
74267;SDS011;62638;51.362;12.472;2022-10-22T04:40:30;5.97;;;2.97;;
74267;SDS011;62638;51.362;12.472;2022-10-22T04:42:56;5.72;;;2.97;;
74267;SDS011;62638;51.362;12.472;2022-10-22T04:45:21;8.07;;;3.20;;
74267;SDS011;62638;51.362;12.472;2022-10-22T04:47:46;8.20;;;3.20;;
74267;SDS011;62638;51.362;12.472;2022-10-22T04:50:11;8.15;;;3.28;;
74267;SDS011;62638;51.362;12.472;2022-10-22T04:52:37;6.20;;;3.00;;
74267;SDS011;62638;51.362;12.472;2022-10-22T04:55:02;5.03;;;2.88;;
74267;SDS011;62638;51.362;12.472;2022-10-22T04:57:29;4.85;;;2.97;;
74267;SDS011;62638;51.362;12.472;2022-10-22T04:59:55;7.85;;;3.35;;
74267;SDS011;62638;51.362;12.472;2022-10-22T05:02:20;7.10;;;2.83;;
74267;SDS011;62638;51.362;12.472;2022-10-22T05:04:45;9.48;;;3.25;;
74267;SDS011;62638;51.362;12.472;2022-10-22T05:07:11;6.00;;;3.33;;
74267;SDS011;62638;51.362;12.472;2022-10-22T05:09:36;6.50;;;3.58;;
74267;SDS011;62638;51.362;12.472;2022-10-22T05:12:02;8.13;;;3.00;;
74267;SDS011;62638;51.362;12.472;2022-10-22T05:14:27;6.55;;;2.83;;
74267;SDS011;62638;51.362;12.472;2022-10-22T05:16:52;5.83;;;2.87;;
74267;SDS011;62638;51.362;12.472;2022-10-22T05:19:27;6.32;;;3.10;;
74267;SDS011;62638;51.362;12.472;2022-10-22T05:21:55;6.38;;;3.13;;
74267;SDS011;62638;51.362;12.472;2022-10-22T05:24:22;5.10;;;2.45;;
74267;SDS011;62638;51.362;12.472;2022-10-22T05:26:49;5.07;;;3.05;;
74267;SDS011;62638;51.362;12.472;2022-10-22T05:29:17;5.18;;;2.58;;
74267;SDS011;62638;51.362;12.472;2022-10-22T05:31:43;6.88;;;3.13;;
74267;SDS011;62638;51.362;12.472;2022-10-22T05:34:09;7.65;;;3.38;;
74267;SDS011;62638;51.362;12.472;2022-10-22T05:36:34;9.38;;;2.92;;
74267;SDS011;62638;51.362;12.472;2022-10-22T05:39:00;6.90;;;3.00;;
74267;SDS011;62638;51.362;12.472;2022-10-22T05:41:26;8.48;;;3.25;;
74267;SDS011;62638;51.362;12.472;2022-10-22T05:43:55;5.90;;;3.20;;
74267;SDS011;62638;51.362;12.472;2022-10-22T05:46:23;7.15;;;2.80;;
74267;SDS011;62638;51.362;12.472;2022-10-22T05:48:51;6.40;;;2.97;;
74267;SDS011;62638;51.362;12.472;2022-10-22T05:51:21;7.65;;;3.55;;
74267;SDS011;62638;51.362;12.472;2022-10-22T05:53:55;8.45;;;3.22;;
74267;SDS011;62638;51.362;12.472;2022-10-22T05:56:23;6.90;;;2.85;;
74267;SDS011;62638;51.362;12.472;2022-10-22T05:58:50;9.50;;;3.40;;
74267;SDS011;62638;51.362;12.472;2022-10-22T06:01:19;5.47;;;3.20;;
74267;SDS011;62638;51.362;12.472;2022-10-22T06:03:51;5.28;;;3.35;;
74267;SDS011;62638;51.362;12.472;2022-10-22T06:08:50;6.93;;;3.33;;
74267;SDS011;62638;51.362;12.472;2022-10-22T06:11:18;5.90;;;2.90;;
74267;SDS011;62638;51.362;12.472;2022-10-22T06:13:44;6.65;;;3.58;;
74267;SDS011;62638;51.362;12.472;2022-10-22T06:16:10;5.70;;;3.47;;
74267;SDS011;62638;51.362;12.472;2022-10-22T06:18:36;7.25;;;3.20;;
74267;SDS011;62638;51.362;12.472;2022-10-22T06:21:08;5.10;;;2.80;;
74267;SDS011;62638;51.362;12.472;2022-10-22T06:23:35;7.10;;;2.67;;
74267;SDS011;62638;51.362;12.472;2022-10-22T06:26:02;5.25;;;2.95;;
74267;SDS011;62638;51.362;12.472;2022-10-22T06:28:28;7.85;;;3.67;;
74267;SDS011;62638;51.362;12.472;2022-10-22T06:30:53;6.47;;;2.97;;
74267;SDS011;62638;51.362;12.472;2022-10-22T06:33:18;5.07;;;2.67;;
74267;SDS011;62638;51.362;12.472;2022-10-22T06:35:44;6.63;;;3.05;;
74267;SDS011;62638;51.362;12.472;2022-10-22T06:38:09;5.70;;;3.40;;
74267;SDS011;62638;51.362;12.472;2022-10-22T06:40:35;5.07;;;3.13;;
74267;SDS011;62638;51.362;12.472;2022-10-22T06:43:00;5.82;;;3.25;;
74267;SDS011;62638;51.362;12.472;2022-10-22T06:45:26;4.28;;;2.65;;
74267;SDS011;62638;51.362;12.472;2022-10-22T06:47:52;5.85;;;3.30;;
74267;SDS011;62638;51.362;12.472;2022-10-22T06:50:17;6.30;;;3.10;;
74267;SDS011;62638;51.362;12.472;2022-10-22T06:52:43;6.22;;;3.05;;
74267;SDS011;62638;51.362;12.472;2022-10-22T06:55:09;5.43;;;2.45;;
74267;SDS011;62638;51.362;12.472;2022-10-22T06:57:34;3.10;;;2.28;;
74267;SDS011;62638;51.362;12.472;2022-10-22T07:00:00;7.25;;;2.92;;
74267;SDS011;62638;51.362;12.472;2022-10-22T07:02:25;4.47;;;2.80;;
74267;SDS011;62638;51.362;12.472;2022-10-22T07:04:51;4.20;;;2.55;;
74267;SDS011;62638;51.362;12.472;2022-10-22T07:07:16;5.43;;;2.93;;
74267;SDS011;62638;51.362;12.472;2022-10-22T07:09:41;5.88;;;2.45;;
74267;SDS011;62638;51.362;12.472;2022-10-22T07:12:09;5.55;;;2.63;;
74267;SDS011;62638;51.362;12.472;2022-10-22T07:14:36;4.35;;;2.60;;
74267;SDS011;62638;51.362;12.472;2022-10-22T07:17:02;5.53;;;2.45;;
74267;SDS011;62638;51.362;12.472;2022-10-22T07:19:27;6.25;;;2.92;;
74267;SDS011;62638;51.362;12.472;2022-10-22T07:21:53;5.38;;;2.78;;
74267;SDS011;62638;51.362;12.472;2022-10-22T07:24:18;3.40;;;2.33;;
74267;SDS011;62638;51.362;12.472;2022-10-22T07:26:43;4.85;;;2.83;;
74267;SDS011;62638;51.362;12.472;2022-10-22T07:29:09;4.77;;;2.53;;
74267;SDS011;62638;51.362;12.472;2022-10-22T07:31:34;6.65;;;2.72;;
74267;SDS011;62638;51.362;12.472;2022-10-22T07:34:00;4.60;;;2.45;;
74267;SDS011;62638;51.362;12.472;2022-10-22T07:36:25;6.45;;;3.20;;
74267;SDS011;62638;51.362;12.472;2022-10-22T07:38:54;4.53;;;2.30;;
74267;SDS011;62638;51.362;12.472;2022-10-22T07:41:21;6.60;;;3.03;;
74267;SDS011;62638;51.362;12.472;2022-10-22T07:43:48;5.60;;;3.13;;
74267;SDS011;62638;51.362;12.472;2022-10-22T07:46:14;5.10;;;2.83;;
74267;SDS011;62638;51.362;12.472;2022-10-22T07:48:40;7.68;;;3.30;;
74267;SDS011;62638;51.362;12.472;2022-10-22T07:51:05;5.47;;;2.60;;
74267;SDS011;62638;51.362;12.472;2022-10-22T07:53:31;4.65;;;2.75;;
74267;SDS011;62638;51.362;12.472;2022-10-22T07:55:57;6.10;;;2.58;;
74267;SDS011;62638;51.362;12.472;2022-10-22T07:58:22;6.20;;;2.72;;
74267;SDS011;62638;51.362;12.472;2022-10-22T08:00:48;4.75;;;2.42;;
74267;SDS011;62638;51.362;12.472;2022-10-22T08:03:15;6.53;;;3.15;;
74267;SDS011;62638;51.362;12.472;2022-10-22T08:05:41;4.82;;;2.88;;
74267;SDS011;62638;51.362;12.472;2022-10-22T08:08:11;4.05;;;2.00;;
74267;SDS011;62638;51.362;12.472;2022-10-22T08:10:37;11.15;;;2.45;;
74267;SDS011;62638;51.362;12.472;2022-10-22T08:13:04;3.70;;;2.05;;
74267;SDS011;62638;51.362;12.472;2022-10-22T08:15:30;2.45;;;1.60;;
74267;SDS011;62638;51.362;12.472;2022-10-22T08:17:55;5.30;;;2.40;;
74267;SDS011;62638;51.362;12.472;2022-10-22T08:20:21;3.15;;;1.80;;
74267;SDS011;62638;51.362;12.472;2022-10-22T08:22:46;3.38;;;1.73;;
74267;SDS011;62638;51.362;12.472;2022-10-22T08:25:12;1.85;;;1.27;;
74267;SDS011;62638;51.362;12.472;2022-10-22T08:27:37;2.22;;;1.27;;
74267;SDS011;62638;51.362;12.472;2022-10-22T08:30:03;2.63;;;1.40;;
74267;SDS011;62638;51.362;12.472;2022-10-22T08:32:30;3.13;;;1.52;;
74267;SDS011;62638;51.362;12.472;2022-10-22T08:34:55;2.47;;;1.33;;
74267;SDS011;62638;51.362;12.472;2022-10-22T08:37:21;3.30;;;1.50;;
74267;SDS011;62638;51.362;12.472;2022-10-22T08:39:46;2.70;;;1.23;;
74267;SDS011;62638;51.362;12.472;2022-10-22T08:45:05;1.13;;;0.80;;
74267;SDS011;62638;51.362;12.472;2022-10-22T08:50:20;2.28;;;1.30;;
74267;SDS011;62638;51.362;12.472;2022-10-22T08:52:51;1.77;;;1.00;;
74267;SDS011;62638;51.362;12.472;2022-10-22T08:55:21;1.35;;;0.80;;
74267;SDS011;62638;51.362;12.472;2022-10-22T08:57:50;1.50;;;0.82;;
74267;SDS011;62638;51.362;12.472;2022-10-22T09:00:30;3.08;;;0.98;;
74267;SDS011;62638;51.362;12.472;2022-10-22T09:05:42;1.10;;;0.77;;
74267;SDS011;62638;51.362;12.472;2022-10-22T09:08:16;2.10;;;1.00;;
74267;SDS011;62638;51.362;12.472;2022-10-22T09:10:54;2.50;;;1.20;;
74267;SDS011;62638;51.362;12.472;2022-10-22T09:13:27;0.90;;;0.68;;
74267;SDS011;62638;51.362;12.472;2022-10-22T09:15:58;1.27;;;0.57;;
74267;SDS011;62638;51.362;12.472;2022-10-22T09:18:41;1.58;;;0.70;;
74267;SDS011;62638;51.362;12.472;2022-10-22T09:24:37;1.35;;;0.60;;
74267;SDS011;62638;51.362;12.472;2022-10-22T09:27:10;2.20;;;0.60;;
74267;SDS011;62638;51.362;12.472;2022-10-22T09:29:40;1.00;;;0.50;;
74267;SDS011;62638;51.362;12.472;2022-10-22T09:32:06;0.93;;;0.50;;
74267;SDS011;62638;51.362;12.472;2022-10-22T09:34:31;1.17;;;0.70;;
74267;SDS011;62638;51.362;12.472;2022-10-22T09:36:58;0.88;;;0.50;;
74267;SDS011;62638;51.362;12.472;2022-10-22T09:39:26;1.73;;;0.50;;
74267;SDS011;62638;51.362;12.472;2022-10-22T09:41:55;1.35;;;0.50;;
74267;SDS011;62638;51.362;12.472;2022-10-22T09:44:21;0.60;;;0.45;;
74267;SDS011;62638;51.362;12.472;2022-10-22T09:46:46;1.60;;;0.33;;
74267;SDS011;62638;51.362;12.472;2022-10-22T09:49:16;1.23;;;0.43;;
74267;SDS011;62638;51.362;12.472;2022-10-22T09:54:23;0.38;;;0.20;;
74267;SDS011;62638;51.362;12.472;2022-10-22T09:59:37;0.30;;;0.30;;
74267;SDS011;62638;51.362;12.472;2022-10-22T10:02:16;0.73;;;0.20;;
74267;SDS011;62638;51.362;12.472;2022-10-22T10:09:44;0.65;;;0.40;;
74267;SDS011;62638;51.362;12.472;2022-10-22T10:17:58;0.45;;;0.45;;
74267;SDS011;62638;51.362;12.472;2022-10-22T10:20:52;0.60;;;0.40;;
74267;SDS011;62638;51.362;12.472;2022-10-22T10:26:03;1.08;;;0.43;;
74267;SDS011;62638;51.362;12.472;2022-10-22T10:33:46;1.13;;;0.65;;
74267;SDS011;62638;51.362;12.472;2022-10-22T10:39:12;0.95;;;0.40;;
74267;SDS011;62638;51.362;12.472;2022-10-22T10:44:47;0.30;;;0.30;;
74267;SDS011;62638;51.362;12.472;2022-10-22T10:50:40;0.93;;;0.50;;
74267;SDS011;62638;51.362;12.472;2022-10-22T10:56:00;1.80;;;0.45;;
74267;SDS011;62638;51.362;12.472;2022-10-22T11:01:08;1.17;;;0.55;;
74267;SDS011;62638;51.362;12.472;2022-10-22T11:06:19;0.40;;;0.40;;
74267;SDS011;62638;51.362;12.472;2022-10-22T11:08:46;0.80;;;0.40;;
74267;SDS011;62638;51.362;12.472;2022-10-22T11:11:33;0.95;;;0.30;;
74267;SDS011;62638;51.362;12.472;2022-10-22T11:21:46;0.47;;;0.32;;
74267;SDS011;62638;51.362;12.472;2022-10-22T11:29:53;0.30;;;0.30;;
74267;SDS011;62638;51.362;12.472;2022-10-22T11:34:53;1.05;;;0.20;;
74267;SDS011;62638;51.362;12.472;2022-10-22T11:37:21;0.80;;;0.70;;
74267;SDS011;62638;51.362;12.472;2022-10-22T11:42:40;0.45;;;0.30;;
74267;SDS011;62638;51.362;12.472;2022-10-22T11:48:21;0.52;;;0.20;;
74267;SDS011;62638;51.362;12.472;2022-10-22T11:53:49;0.32;;;0.22;;
74267;SDS011;62638;51.362;12.472;2022-10-22T11:58:46;0.40;;;0.20;;
74267;SDS011;62638;51.362;12.472;2022-10-22T12:08:57;0.38;;;0.30;;
74267;SDS011;62638;51.362;12.472;2022-10-22T12:11:24;0.20;;;0.10;;
74267;SDS011;62638;51.362;12.472;2022-10-22T12:19:29;1.85;;;0.40;;
74267;SDS011;62638;51.362;12.472;2022-10-22T12:21:57;0.40;;;0.40;;
74267;SDS011;62638;51.362;12.472;2022-10-22T12:24:36;0.15;;;0.15;;
74267;SDS011;62638;51.362;12.472;2022-10-22T12:27:26;0.47;;;0.25;;
74267;SDS011;62638;51.362;12.472;2022-10-22T12:29:58;0.22;;;0.13;;
74267;SDS011;62638;51.362;12.472;2022-10-22T12:34:58;1.15;;;0.50;;
74267;SDS011;62638;51.362;12.472;2022-10-22T12:37:30;1.85;;;0.52;;
74267;SDS011;62638;51.362;12.472;2022-10-22T12:39:58;1.75;;;0.40;;
74267;SDS011;62638;51.362;12.472;2022-10-22T12:42:24;0.65;;;0.30;;
74267;SDS011;62638;51.362;12.472;2022-10-22T12:44:53;1.58;;;0.50;;
74267;SDS011;62638;51.362;12.472;2022-10-22T12:47:20;0.38;;;0.25;;
74267;SDS011;62638;51.362;12.472;2022-10-22T12:49:46;0.38;;;0.30;;
74267;SDS011;62638;51.362;12.472;2022-10-22T12:52:14;0.40;;;0.30;;
74267;SDS011;62638;51.362;12.472;2022-10-22T12:54:43;0.40;;;0.20;;
74267;SDS011;62638;51.362;12.472;2022-10-22T12:57:11;0.20;;;0.20;;
74267;SDS011;62638;51.362;12.472;2022-10-22T12:59:39;0.45;;;0.30;;
74267;SDS011;62638;51.362;12.472;2022-10-22T13:02:20;0.57;;;0.50;;
74267;SDS011;62638;51.362;12.472;2022-10-22T13:10:14;1.58;;;0.40;;
74267;SDS011;62638;51.362;12.472;2022-10-22T13:12:44;1.00;;;0.32;;
74267;SDS011;62638;51.362;12.472;2022-10-22T13:15:18;1.17;;;0.43;;
74267;SDS011;62638;51.362;12.472;2022-10-22T13:17:46;0.68;;;0.45;;
74267;SDS011;62638;51.362;12.472;2022-10-22T13:20:17;0.50;;;0.40;;
74267;SDS011;62638;51.362;12.472;2022-10-22T13:22:52;0.43;;;0.30;;
74267;SDS011;62638;51.362;12.472;2022-10-22T13:28:27;1.00;;;0.70;;
74267;SDS011;62638;51.362;12.472;2022-10-22T13:30:53;1.25;;;0.40;;
74267;SDS011;62638;51.362;12.472;2022-10-22T13:33:24;2.38;;;0.73;;
74267;SDS011;62638;51.362;12.472;2022-10-22T13:35:54;1.15;;;0.52;;
74267;SDS011;62638;51.362;12.472;2022-10-22T13:38:22;1.50;;;0.60;;
74267;SDS011;62638;51.362;12.472;2022-10-22T13:40:48;1.45;;;0.70;;
74267;SDS011;62638;51.362;12.472;2022-10-22T13:43:15;1.55;;;0.50;;
74267;SDS011;62638;51.362;12.472;2022-10-22T13:45:41;1.40;;;0.65;;
74267;SDS011;62638;51.362;12.472;2022-10-22T13:48:11;9.45;;;3.67;;
74267;SDS011;62638;51.362;12.472;2022-10-22T13:50:40;1.58;;;0.70;;
74267;SDS011;62638;51.362;12.472;2022-10-22T13:53:05;1.15;;;0.85;;
74267;SDS011;62638;51.362;12.472;2022-10-22T13:55:41;0.73;;;0.50;;
74267;SDS011;62638;51.362;12.472;2022-10-22T13:58:09;0.75;;;0.40;;
74267;SDS011;62638;51.362;12.472;2022-10-22T14:00:42;1.58;;;0.70;;
74267;SDS011;62638;51.362;12.472;2022-10-22T14:03:16;0.70;;;0.60;;
74267;SDS011;62638;51.362;12.472;2022-10-22T14:05:46;3.08;;;0.85;;
74267;SDS011;62638;51.362;12.472;2022-10-22T14:08:13;1.05;;;0.60;;
74267;SDS011;62638;51.362;12.472;2022-10-22T14:10:40;2.58;;;0.70;;
74267;SDS011;62638;51.362;12.472;2022-10-22T14:13:07;0.85;;;0.60;;
74267;SDS011;62638;51.362;12.472;2022-10-22T14:15:34;0.82;;;0.60;;
74267;SDS011;62638;51.362;12.472;2022-10-22T14:18:00;0.90;;;0.70;;
74267;SDS011;62638;51.362;12.472;2022-10-22T14:20:29;1.67;;;0.90;;
74267;SDS011;62638;51.362;12.472;2022-10-22T14:22:59;1.88;;;0.93;;
74267;SDS011;62638;51.362;12.472;2022-10-22T14:25:31;2.22;;;0.70;;
74267;SDS011;62638;51.362;12.472;2022-10-22T14:27:57;2.15;;;0.88;;
74267;SDS011;62638;51.362;12.472;2022-10-22T14:30:23;2.70;;;0.80;;
74267;SDS011;62638;51.362;12.472;2022-10-22T14:32:50;1.27;;;0.70;;
74267;SDS011;62638;51.362;12.472;2022-10-22T14:35:17;1.85;;;0.85;;
74267;SDS011;62638;51.362;12.472;2022-10-22T14:37:44;1.45;;;0.68;;
74267;SDS011;62638;51.362;12.472;2022-10-22T14:40:11;1.35;;;0.80;;
74267;SDS011;62638;51.362;12.472;2022-10-22T14:42:41;1.02;;;0.50;;
74267;SDS011;62638;51.362;12.472;2022-10-22T14:45:11;0.77;;;0.77;;
74267;SDS011;62638;51.362;12.472;2022-10-22T14:47:40;1.42;;;0.73;;
74267;SDS011;62638;51.362;12.472;2022-10-22T14:50:06;2.20;;;1.15;;
74267;SDS011;62638;51.362;12.472;2022-10-22T14:52:32;1.55;;;0.88;;
74267;SDS011;62638;51.362;12.472;2022-10-22T14:54:58;1.45;;;1.13;;
74267;SDS011;62638;51.362;12.472;2022-10-22T14:57:23;2.60;;;1.00;;
74267;SDS011;62638;51.362;12.472;2022-10-22T14:59:49;2.25;;;1.00;;
74267;SDS011;62638;51.362;12.472;2022-10-22T15:02:14;1.80;;;1.05;;
74267;SDS011;62638;51.362;12.472;2022-10-22T15:04:39;1.38;;;1.05;;
74267;SDS011;62638;51.362;12.472;2022-10-22T15:07:05;1.30;;;0.90;;
74267;SDS011;62638;51.362;12.472;2022-10-22T15:09:30;3.05;;;1.15;;
74267;SDS011;62638;51.362;12.472;2022-10-22T15:11:56;1.40;;;0.93;;
74267;SDS011;62638;51.362;12.472;2022-10-22T15:14:22;1.20;;;0.95;;
74267;SDS011;62638;51.362;12.472;2022-10-22T15:16:48;2.47;;;1.00;;
74267;SDS011;62638;51.362;12.472;2022-10-22T15:19:13;2.08;;;0.93;;
74267;SDS011;62638;51.362;12.472;2022-10-22T15:21:39;3.20;;;1.00;;
74267;SDS011;62638;51.362;12.472;2022-10-22T15:24:04;2.63;;;1.10;;
74267;SDS011;62638;51.362;12.472;2022-10-22T15:26:30;3.42;;;1.30;;
74267;SDS011;62638;51.362;12.472;2022-10-22T15:28:55;1.70;;;1.20;;
74267;SDS011;62638;51.362;12.472;2022-10-22T15:34:05;2.20;;;1.30;;
74267;SDS011;62638;51.362;12.472;2022-10-22T15:36:31;1.93;;;1.10;;
74267;SDS011;62638;51.362;12.472;2022-10-22T15:38:56;2.03;;;1.23;;
74267;SDS011;62638;51.362;12.472;2022-10-22T15:41:21;2.03;;;1.08;;
74267;SDS011;62638;51.362;12.472;2022-10-22T15:43:47;2.50;;;1.10;;
74267;SDS011;62638;51.362;12.472;2022-10-22T15:46:17;1.42;;;1.00;;
74267;SDS011;62638;51.362;12.472;2022-10-22T15:48:43;1.40;;;1.15;;
74267;SDS011;62638;51.362;12.472;2022-10-22T15:51:16;1.83;;;1.20;;
74267;SDS011;62638;51.362;12.472;2022-10-22T15:53:43;2.03;;;1.30;;
74267;SDS011;62638;51.362;12.472;2022-10-22T15:56:14;2.40;;;1.00;;
74267;SDS011;62638;51.362;12.472;2022-10-22T15:58:39;2.35;;;1.05;;
74267;SDS011;62638;51.362;12.472;2022-10-22T16:01:05;1.83;;;1.20;;
74267;SDS011;62638;51.362;12.472;2022-10-22T16:03:32;3.92;;;1.20;;
74267;SDS011;62638;51.362;12.472;2022-10-22T16:05:58;2.45;;;1.08;;
74267;SDS011;62638;51.362;12.472;2022-10-22T16:08:24;2.60;;;1.25;;
74267;SDS011;62638;51.362;12.472;2022-10-22T16:10:49;2.15;;;1.40;;
74267;SDS011;62638;51.362;12.472;2022-10-22T16:13:15;2.10;;;1.15;;
74267;SDS011;62638;51.362;12.472;2022-10-22T16:15:40;1.58;;;1.25;;
74267;SDS011;62638;51.362;12.472;2022-10-22T16:18:06;2.72;;;1.67;;
74267;SDS011;62638;51.362;12.472;2022-10-22T16:20:31;3.10;;;1.40;;
74267;SDS011;62638;51.362;12.472;2022-10-22T16:22:56;3.28;;;1.30;;
74267;SDS011;62638;51.362;12.472;2022-10-22T16:25:22;2.70;;;1.13;;
74267;SDS011;62638;51.362;12.472;2022-10-22T16:27:49;4.18;;;1.60;;
74267;SDS011;62638;51.362;12.472;2022-10-22T16:30:15;1.77;;;1.55;;
74267;SDS011;62638;51.362;12.472;2022-10-22T16:32:40;2.90;;;1.80;;
74267;SDS011;62638;51.362;12.472;2022-10-22T16:35:06;2.72;;;1.50;;
74267;SDS011;62638;51.362;12.472;2022-10-22T16:37:32;2.78;;;1.20;;
74267;SDS011;62638;51.362;12.472;2022-10-22T16:39:58;2.38;;;1.63;;
74267;SDS011;62638;51.362;12.472;2022-10-22T16:42:23;2.65;;;1.33;;
74267;SDS011;62638;51.362;12.472;2022-10-22T16:44:48;2.70;;;1.70;;
74267;SDS011;62638;51.362;12.472;2022-10-22T16:47:14;3.45;;;1.00;;